Time;durP1;ratioP1;P1;durP2;ratioP2;P2;SDS_P1;SDS_P2;PMS_P1;PMS_P2;Temp;Humidity;BMP_temperature;BMP_pressure;BME280_temperature;BME280_humidity;BME280_pressure;Samples;Min_cycle;Max_cycle;Signal;HPM_P1;HPM_P2
2021/11/05 00:00:43;0.00;0.00;0.62;0.00;0.00;0.62;2.97;1.13;;;24.30;29.30;;;;;;2260072;61;20393;-60
2021/11/05 00:03:29;0.00;0.00;0.62;0.00;0.00;0.62;1.90;0.93;;;24.30;29.30;;;;;;2260810;61;20381;-60
2021/11/05 00:06:14;0.00;0.00;0.62;0.00;0.00;0.62;1.70;1.00;;;24.30;29.30;;;;;;2261645;61;20362;-57
2021/11/05 00:08:58;0.00;0.00;0.62;0.00;0.00;0.62;2.30;1.73;;;24.30;29.30;;;;;;2260824;61;20408;-60
2021/11/05 00:11:43;0.00;0.00;0.62;0.00;0.00;0.62;3.07;2.00;;;24.30;29.20;;;;;;2261939;61;20386;-60
2021/11/05 00:14:27;0.00;0.00;0.62;0.00;0.00;0.62;3.57;1.57;;;24.30;29.20;;;;;;2261940;61;20393;-60
2021/11/05 00:17:12;0.00;0.00;0.62;0.00;0.00;0.62;3.03;2.50;;;24.30;29.20;;;;;;2261509;61;20393;-60
2021/11/05 00:19:57;0.00;0.00;0.62;0.00;0.00;0.62;3.60;3.00;;;24.20;29.10;;;;;;2261395;61;20374;-60
2021/11/05 00:22:42;0.00;0.00;0.62;0.00;0.00;0.62;2.30;1.90;;;24.20;29.00;;;;;;2261758;61;20382;-60
2021/11/05 00:25:27;0.00;0.00;0.62;0.00;0.00;0.62;2.80;2.50;;;24.20;29.00;;;;;;2261573;61;20366;-60
2021/11/05 00:28:12;0.00;0.00;0.62;0.00;0.00;0.62;3.03;2.33;;;24.20;28.90;;;;;;2262003;61;20389;-58
2021/11/05 00:30:57;0.00;0.00;0.62;0.00;0.00;0.62;3.03;2.30;;;24.20;28.90;;;;;;2261609;61;20377;-58
2021/11/05 00:33:42;0.00;0.00;0.62;0.00;0.00;0.62;2.73;2.27;;;24.10;28.80;;;;;;2261881;61;20441;-58
2021/11/05 00:36:28;0.00;0.00;0.62;0.00;0.00;0.62;3.00;2.70;;;24.20;29.40;;;;;;2261530;61;20730;-59
2021/11/05 00:39:12;0.00;0.00;0.62;0.00;0.00;0.62;2.53;2.10;;;24.10;28.80;;;;;;2261364;61;20400;-59
2021/11/05 00:41:58;0.00;0.00;0.62;0.00;0.00;0.62;2.30;2.00;;;24.10;28.80;;;;;;2261946;61;20385;-59
2021/11/05 00:44:43;0.00;0.00;0.62;0.00;0.00;0.62;4.67;2.43;;;24.10;28.80;;;;;;2261883;61;20397;-58
2021/11/05 00:47:28;0.00;0.00;0.62;0.00;0.00;0.62;2.83;1.90;;;24.10;28.80;;;;;;2261536;61;20431;-58
2021/11/05 00:50:13;0.00;0.00;0.62;0.00;0.00;0.62;3.50;2.90;;;24.00;28.80;;;;;;2261790;61;20358;-58
2021/11/05 00:52:59;0.00;0.00;0.62;0.00;0.00;0.62;2.63;2.43;;;24.10;28.80;;;;;;2261616;61;20369;-58
2021/11/05 00:55:44;0.00;0.00;0.62;0.00;0.00;0.62;2.97;2.67;;;24.00;28.70;;;;;;2261719;61;20366;-58
2021/11/05 00:58:29;0.00;0.00;0.62;0.00;0.00;0.62;2.77;2.40;;;24.00;28.70;;;;;;2261825;61;20710;-61
2021/11/05 01:01:14;0.00;0.00;0.62;0.00;0.00;0.62;2.87;2.43;;;24.00;28.70;;;;;;2261060;61;20474;-61
2021/11/05 01:03:58;0.00;0.00;0.62;0.00;0.00;0.62;4.23;2.90;;;23.90;28.70;;;;;;2261813;61;20427;-59
2021/11/05 01:06:43;0.00;0.00;0.62;0.00;0.00;0.62;3.83;3.20;;;23.90;28.70;;;;;;2261808;61;20353;-59
2021/11/05 01:09:29;0.00;0.00;0.62;0.00;0.00;0.62;3.77;2.90;;;23.90;28.70;;;;;;2261403;61;20623;-61
2021/11/05 01:12:14;0.00;0.00;0.62;0.00;0.00;0.62;2.90;2.50;;;23.90;28.70;;;;;;2261784;61;20377;-60
2021/11/05 01:14:59;0.00;0.00;0.62;0.00;0.00;0.62;2.70;2.17;;;23.80;28.60;;;;;;2261445;61;20366;-61
2021/11/05 01:17:45;0.00;0.00;0.62;0.00;0.00;0.62;3.30;3.00;;;23.80;28.60;;;;;;2261533;61;20581;-60
2021/11/05 01:20:30;0.00;0.00;0.62;0.00;0.00;0.62;3.93;2.90;;;23.80;28.60;;;;;;2261638;61;20632;-58
2021/11/05 01:23:15;0.00;0.00;0.62;0.00;0.00;0.62;2.97;2.57;;;23.70;28.50;;;;;;2261084;61;20362;-61
2021/11/05 01:26:01;0.00;0.00;0.62;0.00;0.00;0.62;3.43;3.13;;;23.70;28.60;;;;;;2261724;61;20397;-61
2021/11/05 01:28:46;0.00;0.00;0.62;0.00;0.00;0.62;3.50;2.50;;;23.70;28.60;;;;;;2261786;61;20381;-60
2021/11/05 01:31:30;0.00;0.00;0.62;0.00;0.00;0.62;3.00;2.33;;;23.70;28.60;;;;;;2261031;61;20458;-60
2021/11/05 01:34:16;0.00;0.00;0.62;0.00;0.00;0.62;3.70;2.73;;;23.60;29.00;;;;;;2262430;61;20472;-60
2021/11/05 01:37:00;0.00;0.00;0.62;0.00;0.00;0.62;2.53;2.33;;;23.60;28.50;;;;;;2262161;61;20361;-60
2021/11/05 01:39:45;0.00;0.00;0.62;0.00;0.00;0.62;3.60;2.67;;;23.60;28.50;;;;;;2262254;61;20589;-60
2021/11/05 01:42:33;0.00;0.00;0.62;0.00;0.00;0.62;4.80;2.60;;;23.60;28.50;;;;;;2262468;61;20385;-60
2021/11/05 01:45:19;0.00;0.00;0.62;0.00;0.00;0.62;3.10;2.63;;;23.50;28.50;;;;;;2261829;61;20377;-60
2021/11/05 01:48:04;0.00;0.00;0.62;0.00;0.00;0.62;3.50;3.20;;;23.50;28.50;;;;;;2262426;61;20477;-60
2021/11/05 01:50:49;0.00;0.00;0.62;0.00;0.00;0.62;3.40;3.10;;;23.50;28.50;;;;;;2262188;61;20353;-61
2021/11/05 01:53:33;0.00;0.00;0.62;0.00;0.00;0.62;3.23;2.93;;;23.40;28.40;;;;;;2261888;61;20397;-60
2021/11/05 01:56:18;0.00;0.00;0.62;0.00;0.00;0.62;3.57;2.87;;;23.40;28.40;;;;;;2262357;61;20396;-60
2021/11/05 01:59:04;0.00;0.00;0.62;0.00;0.00;0.62;4.03;3.30;;;23.40;28.40;;;;;;2261658;61;20442;-60
2021/11/05 02:01:51;0.00;0.00;0.62;0.00;0.00;0.62;3.20;2.73;;;23.40;28.50;;;;;;2262055;61;20753;-60
2021/11/05 02:04:36;0.00;0.00;0.62;0.00;0.00;0.62;3.70;2.93;;;23.30;28.40;;;;;;2262361;61;20421;-60
2021/11/05 02:07:24;0.00;0.00;0.62;0.00;0.00;0.62;3.43;2.20;;;23.30;28.40;;;;;;2261729;61;20396;-60
2021/11/05 02:10:10;0.00;0.00;0.62;0.00;0.00;0.62;3.00;2.57;;;23.30;28.40;;;;;;2262280;61;20361;-60
2021/11/05 02:12:57;0.00;0.00;0.62;0.00;0.00;0.62;3.83;2.83;;;23.30;28.50;;;;;;2261897;61;20417;-60
2021/11/05 02:15:43;0.00;0.00;0.62;0.00;0.00;0.62;4.07;3.13;;;23.30;28.50;;;;;;2261784;61;20596;-60
2021/11/05 02:18:29;0.00;0.00;0.62;0.00;0.00;0.62;3.97;3.57;;;23.20;28.50;;;;;;2262283;61;20366;-60
2021/11/05 02:21:17;0.00;0.00;0.62;0.00;0.00;0.62;5.57;3.90;;;23.20;28.50;;;;;;2261834;61;20397;-60
2021/11/05 02:24:04;0.00;0.00;0.62;0.00;0.00;0.62;3.43;2.87;;;23.20;28.50;;;;;;2262012;61;20374;-61
2021/11/05 02:26:50;0.00;0.00;0.62;0.00;0.00;0.62;4.00;3.00;;;23.20;28.50;;;;;;2262182;61;20366;-60
2021/11/05 02:29:35;0.00;0.00;0.62;0.00;0.00;0.62;4.07;3.10;;;23.20;28.50;;;;;;2261631;61;20376;-60
2021/11/05 02:32:19;0.00;0.00;0.62;0.00;0.00;0.62;3.57;3.10;;;23.10;28.50;;;;;;2262288;61;20401;-60
2021/11/05 02:35:05;0.00;0.00;0.62;0.00;0.00;0.62;3.17;2.87;;;23.10;28.50;;;;;;2262187;61;20354;-60
2021/11/05 02:37:49;0.00;0.00;0.62;0.00;0.00;0.62;3.40;3.00;;;23.10;28.50;;;;;;2261800;61;20373;-60
2021/11/05 02:40:36;0.00;0.00;0.62;0.00;0.00;0.62;3.20;2.70;;;23.10;28.60;;;;;;2261993;61;20535;-59
2021/11/05 02:43:20;0.00;0.00;0.62;0.00;0.00;0.62;3.30;2.70;;;23.00;28.50;;;;;;2262028;61;20380;-61
2021/11/05 02:46:05;0.00;0.00;0.62;0.00;0.00;0.62;3.77;3.27;;;23.10;28.60;;;;;;2261831;61;20437;-61
2021/11/05 02:48:49;0.00;0.00;0.62;0.00;0.00;0.62;3.30;3.00;;;23.00;28.60;;;;;;2262171;61;20394;-61
2021/11/05 02:51:38;0.00;0.00;0.62;0.00;0.00;0.62;3.40;2.70;;;23.00;28.60;;;;;;2261891;61;20734;-60
2021/11/05 02:54:22;0.00;0.00;0.62;0.00;0.00;0.62;3.30;3.00;;;23.00;28.70;;;;;;2262181;61;20358;-58
2021/11/05 02:57:09;0.00;0.00;0.62;0.00;0.00;0.62;3.80;3.43;;;23.00;28.70;;;;;;2262127;61;20430;-61
2021/11/05 02:59:54;0.00;0.00;0.62;0.00;0.00;0.62;3.77;3.37;;;23.00;28.70;;;;;;2261538;61;20385;-59
2021/11/05 03:02:39;0.00;0.00;0.62;0.00;0.00;0.62;5.50;4.57;;;23.00;28.70;;;;;;2262176;61;20531;-59
2021/11/05 03:05:23;0.00;0.00;0.62;0.00;0.00;0.62;4.53;4.10;;;23.00;28.70;;;;;;2262002;61;20362;-60
2021/11/05 03:08:08;0.00;0.00;0.62;0.00;0.00;0.62;4.63;3.20;;;22.90;28.60;;;;;;2261802;61;20602;-61
2021/11/05 03:10:53;0.00;0.00;0.62;0.00;0.00;0.62;4.00;3.60;;;22.90;28.60;;;;;;2262034;61;20421;-60
2021/11/05 03:13:40;0.00;0.00;0.62;0.00;0.00;0.62;4.27;3.57;;;22.90;28.60;;;;;;2261906;61;20369;-61
2021/11/05 03:16:24;0.00;0.00;0.62;0.00;0.00;0.62;4.20;3.77;;;22.80;28.50;;;;;;2262052;61;20373;-60
2021/11/05 03:19:10;0.00;0.00;0.62;0.00;0.00;0.62;4.77;4.27;;;22.80;28.50;;;;;;2262080;61;20435;-61
2021/11/05 03:21:55;0.00;0.00;0.62;0.00;0.00;0.62;4.83;4.33;;;22.80;28.50;;;;;;2261465;61;20385;-60
2021/11/05 03:24:40;0.00;0.00;0.62;0.00;0.00;0.62;8.30;6.50;;;22.80;28.50;;;;;;2262053;61;20722;-59
2021/11/05 03:27:24;0.00;0.00;0.62;0.00;0.00;0.62;11.30;4.97;;;22.80;28.60;;;;;;2261956;61;20378;-59
2021/11/05 03:30:13;0.00;0.00;0.62;0.00;0.00;0.62;6.50;5.70;;;22.70;28.50;;;;;;2261606;61;20369;-61
2021/11/05 03:32:58;0.00;0.00;0.62;0.00;0.00;0.62;6.33;5.10;;;22.70;28.50;;;;;;2262110;61;20416;-60
2021/11/05 03:35:43;0.00;0.00;0.62;0.00;0.00;0.62;7.50;5.43;;;22.60;28.40;;;;;;2261756;61;20354;-61
2021/11/05 03:38:28;0.00;0.00;0.62;0.00;0.00;0.62;5.57;5.00;;;22.60;28.40;;;;;;2261860;61;20430;-60
2021/11/05 03:41:12;0.00;0.00;0.62;0.00;0.00;0.62;5.10;4.60;;;22.60;28.40;;;;;;2261790;61;20564;-60
2021/11/05 03:43:57;0.00;0.00;0.62;0.00;0.00;0.62;4.90;4.03;;;22.60;28.40;;;;;;2261489;61;20366;-60
2021/11/05 03:46:43;0.00;0.00;0.62;0.00;0.00;0.62;5.10;4.23;;;22.50;28.40;;;;;;2261966;61;20389;-60
2021/11/05 03:49:29;0.00;0.00;0.62;0.00;0.00;0.62;5.10;4.60;;;22.50;28.30;;;;;;2261905;61;20734;-60
2021/11/05 03:52:14;0.00;0.00;0.62;0.00;0.00;0.62;5.97;4.93;;;22.50;28.30;;;;;;2261446;61;20428;-60
2021/11/05 03:54:58;0.00;0.00;0.62;0.00;0.00;0.62;4.73;4.10;;;22.50;28.30;;;;;;2261837;61;20362;-60
2021/11/05 03:57:42;0.00;0.00;0.62;0.00;0.00;0.62;5.93;4.83;;;22.50;28.40;;;;;;2261724;61;20713;-60
2021/11/05 04:00:27;0.00;0.00;0.62;0.00;0.00;0.62;5.17;4.57;;;22.40;28.30;;;;;;2261654;61;20373;-59
2021/11/05 04:03:13;0.00;0.00;0.62;0.00;0.00;0.62;4.50;4.10;;;22.50;28.90;;;;;;2261916;61;20353;-59
2021/11/05 04:05:58;0.00;0.00;0.62;0.00;0.00;0.62;5.43;4.27;;;22.40;28.30;;;;;;2261275;61;20469;-61
2021/11/05 04:08:42;0.00;0.00;0.62;0.00;0.00;0.62;4.70;4.20;;;22.40;28.30;;;;;;2261942;61;20404;-59
2021/11/05 04:11:27;0.00;0.00;0.62;0.00;0.00;0.62;4.40;3.97;;;22.40;28.30;;;;;;2261760;61;20373;-59
2021/11/05 04:14:12;0.00;0.00;0.62;0.00;0.00;0.62;4.90;4.40;;;22.40;28.30;;;;;;2261315;61;20357;-60
2021/11/05 04:16:56;0.00;0.00;0.62;0.00;0.00;0.62;4.70;4.03;;;22.40;28.30;;;;;;2261932;61;20362;-60
2021/11/05 04:19:43;0.00;0.00;0.62;0.00;0.00;0.62;5.30;4.33;;;22.40;28.30;;;;;;2261490;61;20711;-60
2021/11/05 04:22:27;0.00;0.00;0.62;0.00;0.00;0.62;5.90;4.83;;;22.40;28.30;;;;;;2261546;61;20386;-61
2021/11/05 04:25:13;0.00;0.00;0.62;0.00;0.00;0.62;4.83;4.33;;;22.30;28.20;;;;;;2261905;61;20358;-60
2021/11/05 04:27:58;0.00;0.00;0.62;0.00;0.00;0.62;6.03;5.10;;;22.30;28.20;;;;;;2261239;61;20357;-59
2021/11/05 04:30:43;0.00;0.00;0.62;0.00;0.00;0.62;6.93;5.00;;;22.30;28.20;;;;;;2261684;61;20639;-61
2021/11/05 04:33:31;0.00;0.00;0.62;0.00;0.00;0.62;6.97;5.77;;;22.30;28.20;;;;;;2261804;61;20366;-61
2021/11/05 04:36:18;0.00;0.00;0.62;0.00;0.00;0.62;5.80;5.13;;;22.30;28.20;;;;;;2261262;61;20346;-61
2021/11/05 04:39:04;0.00;0.00;0.62;0.00;0.00;0.62;5.80;5.00;;;22.20;28.20;;;;;;2261796;61;20374;-60
2021/11/05 04:41:49;0.00;0.00;0.62;0.00;0.00;0.62;6.20;5.47;;;22.30;28.30;;;;;;2261558;61;20377;-58
2021/11/05 04:44:33;0.00;0.00;0.62;0.00;0.00;0.62;6.27;5.10;;;22.20;28.30;;;;;;2261544;61;20377;-61
2021/11/05 04:47:18;0.00;0.00;0.62;0.00;0.00;0.62;6.17;5.30;;;22.20;28.20;;;;;;2261712;61;20381;-61
2021/11/05 04:50:05;0.00;0.00;0.62;0.00;0.00;0.62;6.13;5.30;;;22.20;28.30;;;;;;2261361;61;20366;-58
2021/11/05 04:52:51;0.00;0.00;0.62;0.00;0.00;0.62;5.53;5.03;;;22.20;28.30;;;;;;2261421;61;20389;-60
2021/11/05 04:55:36;0.00;0.00;0.62;0.00;0.00;0.62;6.33;5.30;;;22.20;28.30;;;;;;2261742;61;20432;-58
2021/11/05 04:58:20;0.00;0.00;0.62;0.00;0.00;0.62;7.53;5.13;;;22.10;28.30;;;;;;2261288;61;20362;-61
2021/11/05 05:01:05;0.00;0.00;0.62;0.00;0.00;0.62;6.17;5.50;;;22.10;28.30;;;;;;2261612;61;20417;-61
2021/11/05 05:03:49;0.00;0.00;0.62;0.00;0.00;0.62;6.13;5.53;;;22.10;28.30;;;;;;2261512;61;20357;-59
2021/11/05 05:06:34;0.00;0.00;0.62;0.00;0.00;0.62;6.30;5.67;;;22.10;28.30;;;;;;2261216;61;20366;-61
2021/11/05 05:09:20;0.00;0.00;0.62;0.00;0.00;0.62;6.53;5.77;;;22.10;28.40;;;;;;2261607;61;20573;-61
2021/11/05 05:12:06;0.00;0.00;0.62;0.00;0.00;0.62;7.73;5.90;;;22.10;28.40;;;;;;2261508;61;20445;-61
2021/11/05 05:14:51;0.00;0.00;0.62;0.00;0.00;0.62;7.00;5.80;;;22.00;28.40;;;;;;2261738;61;20358;-61
2021/11/05 05:17:36;0.00;0.00;0.62;0.00;0.00;0.62;6.17;5.53;;;22.00;28.40;;;;;;2261685;61;20354;-61
2021/11/05 05:20:21;0.00;0.00;0.62;0.00;0.00;0.62;6.87;4.93;;;22.00;28.40;;;;;;2260989;61;20385;-61
2021/11/05 05:23:05;0.00;0.00;0.62;0.00;0.00;0.62;5.13;4.50;;;22.00;28.40;;;;;;2261773;61;20611;-61
2021/11/05 05:25:51;0.00;0.00;0.62;0.00;0.00;0.62;7.43;4.77;;;21.90;28.40;;;;;;2261729;61;20404;-59
2021/11/05 05:28:36;0.00;0.00;0.62;0.00;0.00;0.62;5.73;5.20;;;21.90;28.40;;;;;;2261401;61;20365;-59
2021/11/05 05:31:20;0.00;0.00;0.62;0.00;0.00;0.62;7.40;5.50;;;21.90;28.40;;;;;;2261538;61;20369;-61
2021/11/05 05:34:05;0.00;0.00;0.62;0.00;0.00;0.62;5.73;4.90;;;21.90;28.40;;;;;;2261479;61;20354;-60
2021/11/05 05:36:49;0.00;0.00;0.62;0.00;0.00;0.62;6.20;5.50;;;21.90;28.50;;;;;;2261381;61;20377;-58
2021/11/05 05:39:34;0.00;0.00;0.62;0.00;0.00;0.62;12.27;8.17;;;21.90;28.50;;;;;;2261464;61;20393;-56
2021/11/05 05:42:20;0.00;0.00;0.62;0.00;0.00;0.62;8.53;6.63;;;21.90;28.50;;;;;;2261031;61;20638;-57
2021/11/05 05:45:06;0.00;0.00;0.62;0.00;0.00;0.62;8.90;5.70;;;21.90;28.50;;;;;;2261621;61;20362;-55
2021/11/05 05:47:51;0.00;0.00;0.62;0.00;0.00;0.62;7.80;5.60;;;21.90;28.50;;;;;;2261595;61;20381;-55
2021/11/05 05:50:35;0.00;0.00;0.62;0.00;0.00;0.62;9.20;7.33;;;21.80;28.50;;;;;;2261125;61;20358;-57
2021/11/05 05:53:21;0.00;0.00;0.62;0.00;0.00;0.62;12.00;7.27;;;21.80;28.50;;;;;;2261234;61;20724;-59
2021/11/05 05:56:06;0.00;0.00;0.62;0.00;0.00;0.62;9.97;6.20;;;21.80;28.50;;;;;;2260750;61;20578;-56
2021/11/05 05:58:53;0.00;0.00;0.62;0.00;0.00;0.62;6.17;5.47;;;21.80;28.60;;;;;;2260987;61;20369;-59
2021/11/05 06:01:37;0.00;0.00;0.62;0.00;0.00;0.62;7.57;6.20;;;21.70;28.60;;;;;;2260954;61;20776;-58
2021/11/05 06:04:26;0.00;0.00;0.62;0.00;0.00;0.62;7.90;5.70;;;21.70;28.70;;;;;;2260721;61;20732;-58
2021/11/05 06:07:10;0.00;0.00;0.62;0.00;0.00;0.62;4.70;4.20;;;21.70;28.90;;;;;;2261215;61;20591;-57
2021/11/05 06:09:55;0.00;0.00;0.62;0.00;0.00;0.62;8.10;6.67;;;21.70;28.80;;;;;;2261202;61;20354;-56
2021/11/05 06:12:39;0.00;0.00;0.62;0.00;0.00;0.62;8.47;5.83;;;21.70;28.70;;;;;;2260346;61;20421;-54
2021/11/05 06:15:26;0.00;0.00;0.62;0.00;0.00;0.62;6.43;5.47;;;21.70;28.80;;;;;;2261235;61;20714;-57
2021/11/05 06:18:10;0.00;0.00;0.62;0.00;0.00;0.62;7.07;5.50;;;21.60;28.70;;;;;;2261198;61;20699;-56
2021/11/05 06:20:54;0.00;0.00;0.62;0.00;0.00;0.62;5.90;5.23;;;21.60;28.80;;;;;;2260262;61;20600;-57
2021/11/05 06:23:39;0.00;0.00;0.62;0.00;0.00;0.62;4.43;3.90;;;21.60;28.80;;;;;;2261663;61;20366;-58
2021/11/05 06:26:24;0.00;0.00;0.62;0.00;0.00;0.62;5.77;5.17;;;21.60;28.80;;;;;;2261743;61;20370;-58
2021/11/05 06:29:09;0.00;0.00;0.62;0.00;0.00;0.62;4.87;4.30;;;21.60;28.90;;;;;;2262079;61;20362;-57
2021/11/05 06:31:55;0.00;0.00;0.62;0.00;0.00;0.62;5.73;4.13;;;21.60;28.90;;;;;;2261785;61;20494;-57
2021/11/05 06:34:39;0.00;0.00;0.62;0.00;0.00;0.62;7.97;6.30;;;21.60;28.90;;;;;;2261840;61;20737;-57
2021/11/05 06:37:24;0.00;0.00;0.62;0.00;0.00;0.62;7.67;6.17;;;21.60;28.90;;;;;;2262395;61;20358;-58
2021/11/05 06:40:12;0.00;0.00;0.62;0.00;0.00;0.62;6.97;5.70;;;21.60;28.90;;;;;;2261997;61;20410;-59
2021/11/05 06:42:57;0.00;0.00;0.62;0.00;0.00;0.62;8.63;6.90;;;21.60;28.90;;;;;;2260864;61;20420;-58
2021/11/05 06:45:41;0.00;0.00;0.62;0.00;0.00;0.62;7.27;5.83;;;21.50;28.80;;;;;;2262351;61;20361;-59
2021/11/05 06:48:28;0.00;0.00;0.62;0.00;0.00;0.62;6.63;5.87;;;21.50;28.80;;;;;;2261454;61;20354;-57
2021/11/05 06:51:12;0.00;0.00;0.62;0.00;0.00;0.62;4.67;4.17;;;21.50;28.80;;;;;;2261708;61;20397;-59
2021/11/05 06:53:57;0.00;0.00;0.62;0.00;0.00;0.62;6.93;4.10;;;21.50;28.90;;;;;;2262374;61;20725;-59
2021/11/05 06:56:41;0.00;0.00;0.62;0.00;0.00;0.62;4.47;3.80;;;21.50;28.90;;;;;;2261685;61;20733;-58
2021/11/05 06:59:26;0.00;0.00;0.62;0.00;0.00;0.62;4.57;3.67;;;21.50;28.90;;;;;;2261990;61;20353;-57
2021/11/05 07:02:11;0.00;0.00;0.62;0.00;0.00;0.62;4.20;3.30;;;21.50;28.90;;;;;;2262065;61;20382;-58
2021/11/05 07:04:56;0.00;0.00;0.62;0.00;0.00;0.62;4.30;3.47;;;21.50;28.90;;;;;;2261538;61;20435;-59
2021/11/05 07:07:41;0.00;0.00;0.62;0.00;0.00;0.62;4.23;3.27;;;21.50;28.90;;;;;;2262269;61;20586;-59
2021/11/05 07:10:26;0.00;0.00;0.62;0.00;0.00;0.62;4.23;2.70;;;21.50;28.90;;;;;;2261939;61;20397;-56
2021/11/05 07:13:10;0.00;0.00;0.62;0.00;0.00;0.62;3.70;2.60;;;21.50;28.90;;;;;;2261520;61;20393;-59
2021/11/05 07:15:55;0.00;0.00;0.62;0.00;0.00;0.62;3.03;2.40;;;21.50;28.80;;;;;;2262215;61;20354;-57
2021/11/05 07:18:40;0.00;0.00;0.62;0.00;0.00;0.62;2.30;2.10;;;21.60;28.90;;;;;;2261729;61;20362;-58
2021/11/05 07:21:27;0.00;0.00;0.62;0.00;0.00;0.62;3.73;2.23;;;21.60;28.90;;;;;;2261352;61;20389;-59
2021/11/05 07:24:12;0.00;0.00;0.62;0.00;0.00;0.62;2.80;2.10;;;21.60;28.90;;;;;;2261814;61;20378;-58
2021/11/05 07:26:57;0.00;0.00;0.62;0.00;0.00;0.62;2.40;2.10;;;21.60;28.80;;;;;;2261583;61;20346;-58
2021/11/05 07:29:42;0.00;0.00;0.62;0.00;0.00;0.62;3.00;2.40;;;21.60;28.80;;;;;;2262000;61;20538;-58
2021/11/05 07:32:27;0.00;0.00;0.62;0.00;0.00;0.62;2.47;2.10;;;21.70;28.90;;;;;;2261952;61;20377;-58
2021/11/05 07:35:13;0.00;0.00;0.62;0.00;0.00;0.62;2.47;2.07;;;21.70;28.90;;;;;;2261618;61;20362;-59
2021/11/05 07:38:00;0.00;0.00;0.62;0.00;0.00;0.62;2.03;1.83;;;21.70;28.80;;;;;;2262162;61;20355;-56
2021/11/05 07:40:44;0.00;0.00;0.62;0.00;0.00;0.62;2.63;2.10;;;21.70;28.80;;;;;;2261416;61;20726;-56
2021/11/05 07:43:29;0.00;0.00;0.62;0.00;0.00;0.62;2.50;1.90;;;21.70;28.80;;;;;;2261959;61;20401;-58
2021/11/05 07:46:14;0.00;0.00;0.62;0.00;0.00;0.62;2.70;2.20;;;21.70;28.80;;;;;;2262087;61;20357;-57
2021/11/05 07:48:59;0.00;0.00;0.62;0.00;0.00;0.62;3.73;1.90;;;21.70;28.80;;;;;;2261383;61;20354;-59
2021/11/05 07:51:44;0.00;0.00;0.62;0.00;0.00;0.62;3.17;2.20;;;21.70;29.30;;;;;;2262280;61;20460;-59
2021/11/05 07:54:30;0.00;0.00;0.62;0.00;0.00;0.62;1.90;1.50;;;21.80;28.80;;;;;;2261913;61;20396;-56
2021/11/05 07:57:15;0.00;0.00;0.62;0.00;0.00;0.62;2.50;1.97;;;21.70;28.80;;;;;;2261543;61;20578;-58
2021/11/05 07:59:59;0.00;0.00;0.62;0.00;0.00;0.62;2.00;1.80;;;21.80;28.80;;;;;;2262031;61;20462;-58
2021/11/05 08:02:44;0.00;0.00;0.62;0.00;0.00;0.62;3.07;2.30;;;21.80;28.80;;;;;;2261581;61;21063;-58
2021/11/05 08:05:29;0.00;0.00;0.62;0.00;0.00;0.62;2.47;1.67;;;21.80;28.80;;;;;;2261789;61;20354;-59
2021/11/05 08:08:13;0.00;0.00;0.62;0.00;0.00;0.62;2.03;1.83;;;21.80;28.80;;;;;;2262067;61;20351;-59
2021/11/05 08:11:00;0.00;0.00;0.62;0.00;0.00;0.62;2.00;1.53;;;21.80;28.80;;;;;;2260925;61;20473;-59
2021/11/05 08:13:44;0.00;0.00;0.62;0.00;0.00;0.62;2.17;1.80;;;21.80;28.80;;;;;;2261997;61;20397;-56
2021/11/05 08:16:29;0.00;0.00;0.62;0.00;0.00;0.62;2.10;1.87;;;21.80;28.80;;;;;;2261830;61;20358;-57
2021/11/05 08:19:14;0.00;0.00;0.62;0.00;0.00;0.62;2.30;2.00;;;21.80;28.80;;;;;;2261495;61;20754;-58
2021/11/05 08:21:58;0.00;0.00;0.62;0.00;0.00;0.62;2.40;1.77;;;21.80;28.80;;;;;;2261816;61;20453;-57
2021/11/05 08:24:43;0.00;0.00;0.62;0.00;0.00;0.62;1.97;1.70;;;21.80;28.80;;;;;;2261588;61;20358;-58
2021/11/05 08:27:29;0.00;0.00;0.62;0.00;0.00;0.62;1.90;1.60;;;21.80;28.80;;;;;;2261679;61;20392;-57
2021/11/05 08:30:20;0.00;0.00;0.62;0.00;0.00;0.62;2.50;1.80;;;21.90;28.80;;;;;;2261451;61;20466;-56
2021/11/05 08:33:05;0.00;0.00;0.62;0.00;0.00;0.62;1.63;1.30;;;21.90;28.80;;;;;;2261527;61;20760;-58
2021/11/05 08:35:51;0.00;0.00;0.62;0.00;0.00;0.62;2.47;1.73;;;21.90;28.80;;;;;;2262026;61;20468;-58
2021/11/05 08:38:36;0.00;0.00;0.62;0.00;0.00;0.62;2.67;1.97;;;21.80;28.70;;;;;;2261755;61;20353;-59
2021/11/05 08:41:21;0.00;0.00;0.62;0.00;0.00;0.62;2.17;1.63;;;21.90;28.80;;;;;;2261146;61;20441;-57
2021/11/05 08:44:07;0.00;0.00;0.62;0.00;0.00;0.62;2.37;1.87;;;21.90;28.80;;;;;;2261953;61;20358;-59
2021/11/05 08:46:52;0.00;0.00;0.62;0.00;0.00;0.62;1.90;1.70;;;21.90;28.80;;;;;;2261577;61;20366;-59
2021/11/05 08:49:36;0.00;0.00;0.62;0.00;0.00;0.62;2.30;1.63;;;21.90;28.80;;;;;;2261514;61;20397;-59
2021/11/05 08:52:21;0.00;0.00;0.62;0.00;0.00;0.62;2.00;1.60;;;21.90;28.90;;;;;;2261807;61;20385;-59
2021/11/05 08:55:08;0.00;0.00;0.62;0.00;0.00;0.62;2.07;1.80;;;21.90;28.80;;;;;;2261413;61;20353;-57
2021/11/05 08:57:53;0.00;0.00;0.62;0.00;0.00;0.62;1.87;1.40;;;21.90;28.80;;;;;;2261684;61;20413;-57
2021/11/05 09:00:39;0.00;0.00;0.62;0.00;0.00;0.62;3.10;1.80;;;21.90;28.80;;;;;;2261648;61;20377;-57
2021/11/05 09:03:24;0.00;0.00;0.62;0.00;0.00;0.62;2.17;1.37;;;22.00;28.90;;;;;;2261233;61;20370;-59
2021/11/05 09:06:09;0.00;0.00;0.62;0.00;0.00;0.62;1.53;1.17;;;21.90;28.80;;;;;;2261857;61;20378;-60
2021/11/05 09:08:56;0.00;0.00;0.62;0.00;0.00;0.62;1.87;1.50;;;22.00;28.90;;;;;;2261755;61;20393;-59
2021/11/05 09:11:40;0.00;0.00;0.62;0.00;0.00;0.62;3.10;1.60;;;22.00;28.90;;;;;;2261425;61;20392;-59
2021/11/05 09:14:25;0.00;0.00;0.62;0.00;0.00;0.62;1.80;1.30;;;22.00;29.40;;;;;;2261844;61;20389;-56
2021/11/05 09:17:11;0.00;0.00;0.62;0.00;0.00;0.62;1.80;1.37;;;22.00;28.90;;;;;;2261371;61;20350;-59
2021/11/05 09:19:55;0.00;0.00;0.62;0.00;0.00;0.62;1.80;1.30;;;22.00;28.90;;;;;;2261032;61;20370;-57
2021/11/05 09:22:40;0.00;0.00;0.62;0.00;0.00;0.62;1.80;1.50;;;22.00;28.90;;;;;;2261450;61;20424;-57
2021/11/05 09:25:25;0.00;0.00;0.62;0.00;0.00;0.62;1.70;1.50;;;22.00;28.90;;;;;;2261205;61;20654;-56
2021/11/05 09:28:10;0.00;0.00;0.62;0.00;0.00;0.62;1.73;1.43;;;22.10;28.90;;;;;;2261843;61;20371;-57
2021/11/05 09:30:55;0.00;0.00;0.62;0.00;0.00;0.62;2.10;1.50;;;22.10;29.00;;;;;;2261527;61;20353;-58
2021/11/05 09:33:41;0.00;0.00;0.62;0.00;0.00;0.62;1.80;1.60;;;22.10;28.90;;;;;;2261460;61;20578;-59
2021/11/05 09:36:25;0.00;0.00;0.62;0.00;0.00;0.62;1.70;1.20;;;22.10;29.40;;;;;;2261785;61;20585;-56
2021/11/05 09:39:10;0.00;0.00;0.62;0.00;0.00;0.62;1.83;1.47;;;22.10;28.90;;;;;;2261206;61;20353;-59
2021/11/05 09:41:55;0.00;0.00;0.62;0.00;0.00;0.62;1.70;1.30;;;22.10;28.90;;;;;;2261448;61;20778;-57
2021/11/05 09:44:39;0.00;0.00;0.62;0.00;0.00;0.62;2.03;1.37;;;22.10;28.90;;;;;;2261777;61;20486;-58
2021/11/05 09:47:24;0.00;0.00;0.62;0.00;0.00;0.62;1.93;1.53;;;22.10;28.90;;;;;;2260538;61;20369;-58
2021/11/05 09:50:17;0.00;0.00;0.62;0.00;0.00;0.62;2.03;1.23;;;22.10;28.90;;;;;;2261732;61;20801;-59
2021/11/05 09:53:02;0.00;0.00;0.62;0.00;0.00;0.62;1.63;1.13;;;22.10;28.90;;;;;;2261665;61;20370;-56
2021/11/05 09:55:47;0.00;0.00;0.62;0.00;0.00;0.62;2.00;1.40;;;22.20;28.90;;;;;;2261838;61;20388;-58
2021/11/05 09:58:32;0.00;0.00;0.62;0.00;0.00;0.62;1.90;1.20;;;22.20;28.90;;;;;;2262536;61;20366;-57
2021/11/05 10:01:17;0.00;0.00;0.62;0.00;0.00;0.62;1.70;1.20;;;22.20;28.90;;;;;;2261732;61;20442;-56
2021/11/05 10:04:01;0.00;0.00;0.62;0.00;0.00;0.62;2.07;1.37;;;22.20;28.90;;;;;;2262162;61;20369;-58
2021/11/05 10:07:00;0.00;0.00;0.62;0.00;0.00;0.62;1.80;1.50;;;22.20;28.90;;;;;;2262434;61;20584;-58
2021/11/05 10:09:52;0.00;0.00;0.62;0.00;0.00;0.62;1.93;1.60;;;22.20;28.90;;;;;;2261795;61;20442;-57
2021/11/05 10:12:37;0.00;0.00;0.62;0.00;0.00;0.62;1.87;1.20;;;22.20;28.90;;;;;;2262543;61;20374;-58
2021/11/05 10:15:27;0.00;0.00;0.62;0.00;0.00;0.62;1.50;1.10;;;22.20;28.90;;;;;;2262379;61;20576;-57
2021/11/05 10:18:17;0.00;0.00;0.62;0.00;0.00;0.62;1.80;1.30;;;22.30;29.00;;;;;;2262195;61;20639;-59
2021/11/05 10:21:08;0.00;0.00;0.62;0.00;0.00;0.62;1.70;1.30;;;22.30;28.90;;;;;;2262314;61;20475;-58
2021/11/05 10:24:07;0.00;0.00;0.62;0.00;0.00;0.62;1.57;1.23;;;22.30;28.90;;;;;;2261962;61;20480;-58
2021/11/05 10:26:51;0.00;0.00;0.62;0.00;0.00;0.62;1.50;0.90;;;22.30;28.90;;;;;;2262455;61;20756;-57
2021/11/05 10:29:37;0.00;0.00;0.62;0.00;0.00;0.62;1.80;1.50;;;22.30;28.90;;;;;;2262253;61;20382;-58
2021/11/05 10:32:22;0.00;0.00;0.62;0.00;0.00;0.62;1.60;1.10;;;22.30;28.90;;;;;;2261406;61;20428;-58
2021/11/05 10:35:13;0.00;0.00;0.62;0.00;0.00;0.62;1.70;1.20;;;22.30;28.80;;;;;;2262507;61;20357;-59
2021/11/05 10:38:03;0.00;0.00;0.62;0.00;0.00;0.62;2.03;1.60;;;22.30;28.80;;;;;;2261857;61;20362;-58
2021/11/05 10:40:53;0.00;0.00;0.62;0.00;0.00;0.62;1.67;1.10;;;22.30;28.80;;;;;;2261927;61;20390;-59
2021/11/05 10:43:42;0.00;0.00;0.62;0.00;0.00;0.62;1.80;1.50;;;22.30;28.80;;;;;;2262419;61;20404;-58
2021/11/05 10:46:30;0.00;0.00;0.62;0.00;0.00;0.62;2.13;1.57;;;22.40;28.90;;;;;;2261754;61;20354;-57
2021/11/05 10:49:25;0.00;0.00;0.62;0.00;0.00;0.62;2.13;1.43;;;22.40;28.90;;;;;;2262455;61;20358;-59
2021/11/05 10:52:18;0.00;0.00;0.62;0.00;0.00;0.62;1.70;1.40;;;22.40;28.80;;;;;;2262051;61;20397;-57